sensor_id;sensor_type;location;lat;lon;timestamp;temperature;humidity
25250;DHT22;13201;51.148;13.738;2023-09-08T00:01:52;18.90;99.90
25250;DHT22;13201;51.148;13.738;2023-09-08T00:04:18;18.90;99.90
25250;DHT22;13201;51.148;13.738;2023-09-08T00:06:46;18.90;99.90
25250;DHT22;13201;51.148;13.738;2023-09-08T00:09:11;18.90;99.90
25250;DHT22;13201;51.148;13.738;2023-09-08T00:11:37;18.90;99.90
25250;DHT22;13201;51.148;13.738;2023-09-08T00:14:03;18.80;99.90
25250;DHT22;13201;51.148;13.738;2023-09-08T00:16:29;18.80;99.90
25250;DHT22;13201;51.148;13.738;2023-09-08T00:18:56;18.80;99.90
25250;DHT22;13201;51.148;13.738;2023-09-08T00:21:23;18.60;99.90
25250;DHT22;13201;51.148;13.738;2023-09-08T00:23:49;18.60;99.90
25250;DHT22;13201;51.148;13.738;2023-09-08T00:26:15;18.60;99.90
25250;DHT22;13201;51.148;13.738;2023-09-08T00:28:41;18.50;99.90
25250;DHT22;13201;51.148;13.738;2023-09-08T00:31:06;18.40;99.90
25250;DHT22;13201;51.148;13.738;2023-09-08T00:33:32;18.30;99.90
25250;DHT22;13201;51.148;13.738;2023-09-08T00:35:57;18.30;99.90
25250;DHT22;13201;51.148;13.738;2023-09-08T00:38:24;18.20;99.90
25250;DHT22;13201;51.148;13.738;2023-09-08T00:40:49;18.10;99.90
25250;DHT22;13201;51.148;13.738;2023-09-08T00:43:17;18.10;99.90
25250;DHT22;13201;51.148;13.738;2023-09-08T00:45:43;18.10;99.90
25250;DHT22;13201;51.148;13.738;2023-09-08T00:48:11;18.10;99.90
25250;DHT22;13201;51.148;13.738;2023-09-08T00:50:37;17.90;99.90
25250;DHT22;13201;51.148;13.738;2023-09-08T00:53:07;17.80;99.90
25250;DHT22;13201;51.148;13.738;2023-09-08T00:55:33;17.90;99.90
25250;DHT22;13201;51.148;13.738;2023-09-08T00:58:00;17.90;99.90
25250;DHT22;13201;51.148;13.738;2023-09-08T01:00:26;17.80;99.90
25250;DHT22;13201;51.148;13.738;2023-09-08T01:02:52;17.60;99.90
25250;DHT22;13201;51.148;13.738;2023-09-08T01:29:05;16.20;99.90
25250;DHT22;13201;51.148;13.738;2023-09-08T01:31:32;16.10;99.90
25250;DHT22;13201;51.148;13.738;2023-09-08T01:34:00;16.10;99.90
25250;DHT22;13201;51.148;13.738;2023-09-08T01:36:26;16.10;99.90
25250;DHT22;13201;51.148;13.738;2023-09-08T01:38:52;16.30;99.90
25250;DHT22;13201;51.148;13.738;2023-09-08T01:41:18;16.20;99.90
25250;DHT22;13201;51.148;13.738;2023-09-08T01:43:43;16.40;99.90
25250;DHT22;13201;51.148;13.738;2023-09-08T01:46:09;16.50;99.90
25250;DHT22;13201;51.148;13.738;2023-09-08T01:48:35;16.70;99.90
25250;DHT22;13201;51.148;13.738;2023-09-08T01:51:00;16.60;99.90
25250;DHT22;13201;51.148;13.738;2023-09-08T01:53:26;16.60;99.90
25250;DHT22;13201;51.148;13.738;2023-09-08T01:55:52;16.50;99.90
25250;DHT22;13201;51.148;13.738;2023-09-08T01:58:17;16.60;99.90
25250;DHT22;13201;51.148;13.738;2023-09-08T02:00:43;16.40;99.90
25250;DHT22;13201;51.148;13.738;2023-09-08T02:03:13;16.60;99.90
25250;DHT22;13201;51.148;13.738;2023-09-08T02:05:39;16.40;99.90
25250;DHT22;13201;51.148;13.738;2023-09-08T02:08:05;16.50;99.90
25250;DHT22;13201;51.148;13.738;2023-09-08T02:10:31;16.60;99.90
25250;DHT22;13201;51.148;13.738;2023-09-08T02:12:57;16.60;99.90
25250;DHT22;13201;51.148;13.738;2023-09-08T02:15:23;16.60;99.90
25250;DHT22;13201;51.148;13.738;2023-09-08T02:17:57;16.60;99.90
25250;DHT22;13201;51.148;13.738;2023-09-08T02:20:23;16.70;99.90
25250;DHT22;13201;51.148;13.738;2023-09-08T02:22:54;16.80;99.90
25250;DHT22;13201;51.148;13.738;2023-09-08T02:25:20;16.70;99.90
25250;DHT22;13201;51.148;13.738;2023-09-08T02:27:45;16.70;99.90
25250;DHT22;13201;51.148;13.738;2023-09-08T02:30:11;16.90;99.90
25250;DHT22;13201;51.148;13.738;2023-09-08T02:32:37;16.90;99.90
25250;DHT22;13201;51.148;13.738;2023-09-08T02:35:03;17.00;99.90
25250;DHT22;13201;51.148;13.738;2023-09-08T02:37:28;17.10;99.90
25250;DHT22;13201;51.148;13.738;2023-09-08T02:39:54;17.20;99.90
25250;DHT22;13201;51.148;13.738;2023-09-08T02:42:20;17.20;99.90
25250;DHT22;13201;51.148;13.738;2023-09-08T02:44:45;17.30;99.90
25250;DHT22;13201;51.148;13.738;2023-09-08T02:47:11;17.40;99.90
25250;DHT22;13201;51.148;13.738;2023-09-08T02:49:37;17.40;99.90
25250;DHT22;13201;51.148;13.738;2023-09-08T02:52:02;17.40;99.90
25250;DHT22;13201;51.148;13.738;2023-09-08T02:54:28;17.30;99.90
25250;DHT22;13201;51.148;13.738;2023-09-08T02:56:54;17.40;99.90
25250;DHT22;13201;51.148;13.738;2023-09-08T02:59:20;17.50;99.90
25250;DHT22;13201;51.148;13.738;2023-09-08T03:01:46;17.50;99.90
25250;DHT22;13201;51.148;13.738;2023-09-08T03:04:11;17.50;99.90
25250;DHT22;13201;51.148;13.738;2023-09-08T03:06:37;17.50;99.90
25250;DHT22;13201;51.148;13.738;2023-09-08T03:09:03;17.50;99.90
25250;DHT22;13201;51.148;13.738;2023-09-08T03:11:29;17.60;99.90
25250;DHT22;13201;51.148;13.738;2023-09-08T03:13:55;17.50;99.90
25250;DHT22;13201;51.148;13.738;2023-09-08T03:16:20;17.60;99.90
25250;DHT22;13201;51.148;13.738;2023-09-08T03:18:46;17.60;99.90
25250;DHT22;13201;51.148;13.738;2023-09-08T03:21:13;17.70;99.90
25250;DHT22;13201;51.148;13.738;2023-09-08T03:23:42;17.70;99.90
25250;DHT22;13201;51.148;13.738;2023-09-08T03:26:08;17.60;99.90
25250;DHT22;13201;51.148;13.738;2023-09-08T03:28:35;17.60;99.90
25250;DHT22;13201;51.148;13.738;2023-09-08T03:31:02;17.60;99.90
25250;DHT22;13201;51.148;13.738;2023-09-08T03:33:28;17.50;99.90
25250;DHT22;13201;51.148;13.738;2023-09-08T03:35:53;17.50;99.90
25250;DHT22;13201;51.148;13.738;2023-09-08T03:38:21;17.50;99.90
25250;DHT22;13201;51.148;13.738;2023-09-08T03:40:46;17.40;99.90
25250;DHT22;13201;51.148;13.738;2023-09-08T03:43:12;17.30;99.90
25250;DHT22;13201;51.148;13.738;2023-09-08T03:45:38;17.30;99.90
25250;DHT22;13201;51.148;13.738;2023-09-08T03:48:03;17.30;99.90
25250;DHT22;13201;51.148;13.738;2023-09-08T03:50:29;17.20;99.90
25250;DHT22;13201;51.148;13.738;2023-09-08T03:52:55;17.10;99.90
25250;DHT22;13201;51.148;13.738;2023-09-08T03:55:21;17.10;99.90
25250;DHT22;13201;51.148;13.738;2023-09-08T03:57:47;17.00;99.90
25250;DHT22;13201;51.148;13.738;2023-09-08T04:00:13;16.90;99.90
25250;DHT22;13201;51.148;13.738;2023-09-08T04:02:45;16.90;99.90
25250;DHT22;13201;51.148;13.738;2023-09-08T04:05:10;16.80;99.90
25250;DHT22;13201;51.148;13.738;2023-09-08T04:07:37;16.80;99.90
25250;DHT22;13201;51.148;13.738;2023-09-08T04:10:03;16.70;99.90
25250;DHT22;13201;51.148;13.738;2023-09-08T04:12:29;16.70;99.90
25250;DHT22;13201;51.148;13.738;2023-09-08T04:14:54;16.70;99.90
25250;DHT22;13201;51.148;13.738;2023-09-08T04:17:20;16.60;99.90
25250;DHT22;13201;51.148;13.738;2023-09-08T04:19:46;16.60;99.90
25250;DHT22;13201;51.148;13.738;2023-09-08T04:22:11;16.60;99.90
25250;DHT22;13201;51.148;13.738;2023-09-08T04:24:37;16.50;99.90
25250;DHT22;13201;51.148;13.738;2023-09-08T04:27:04;16.40;99.90
25250;DHT22;13201;51.148;13.738;2023-09-08T04:29:29;16.40;99.90
25250;DHT22;13201;51.148;13.738;2023-09-08T04:31:55;16.40;99.90
25250;DHT22;13201;51.148;13.738;2023-09-08T04:34:21;16.40;99.90
25250;DHT22;13201;51.148;13.738;2023-09-08T04:36:46;16.30;99.90
25250;DHT22;13201;51.148;13.738;2023-09-08T04:39:12;16.30;99.90
25250;DHT22;13201;51.148;13.738;2023-09-08T04:41:40;16.20;99.90
25250;DHT22;13201;51.148;13.738;2023-09-08T04:44:06;16.20;99.90
25250;DHT22;13201;51.148;13.738;2023-09-08T04:46:32;16.20;99.90
25250;DHT22;13201;51.148;13.738;2023-09-08T04:48:57;16.20;99.90
25250;DHT22;13201;51.148;13.738;2023-09-08T04:51:23;16.20;99.90
25250;DHT22;13201;51.148;13.738;2023-09-08T04:53:49;16.20;99.90
25250;DHT22;13201;51.148;13.738;2023-09-08T04:56:14;16.10;99.90
25250;DHT22;13201;51.148;13.738;2023-09-08T04:58:40;16.10;99.90
25250;DHT22;13201;51.148;13.738;2023-09-08T05:01:06;16.00;99.90
25250;DHT22;13201;51.148;13.738;2023-09-08T05:03:31;16.10;99.90
25250;DHT22;13201;51.148;13.738;2023-09-08T05:05:57;16.10;99.90
25250;DHT22;13201;51.148;13.738;2023-09-08T05:08:23;15.90;99.90
25250;DHT22;13201;51.148;13.738;2023-09-08T05:10:48;15.80;99.90
25250;DHT22;13201;51.148;13.738;2023-09-08T05:13:16;16.00;99.90
25250;DHT22;13201;51.148;13.738;2023-09-08T05:15:42;16.10;99.90
25250;DHT22;13201;51.148;13.738;2023-09-08T05:18:09;16.00;99.90
25250;DHT22;13201;51.148;13.738;2023-09-08T05:20:35;16.10;99.90
25250;DHT22;13201;51.148;13.738;2023-09-08T05:23:00;16.10;99.90
25250;DHT22;13201;51.148;13.738;2023-09-08T05:25:26;16.10;99.90
25250;DHT22;13201;51.148;13.738;2023-09-08T05:27:52;16.20;99.90
25250;DHT22;13201;51.148;13.738;2023-09-08T05:30:18;16.30;99.90
25250;DHT22;13201;51.148;13.738;2023-09-08T05:32:43;16.30;99.90
25250;DHT22;13201;51.148;13.738;2023-09-08T05:35:09;16.30;99.90
25250;DHT22;13201;51.148;13.738;2023-09-08T05:37:35;16.40;99.90
25250;DHT22;13201;51.148;13.738;2023-09-08T05:40:01;16.50;99.90
25250;DHT22;13201;51.148;13.738;2023-09-08T05:42:26;16.50;99.90
25250;DHT22;13201;51.148;13.738;2023-09-08T05:44:52;16.50;99.90
25250;DHT22;13201;51.148;13.738;2023-09-08T05:47:20;16.60;99.90
25250;DHT22;13201;51.148;13.738;2023-09-08T05:49:45;16.60;99.90
25250;DHT22;13201;51.148;13.738;2023-09-08T05:52:11;16.80;99.90
25250;DHT22;13201;51.148;13.738;2023-09-08T05:54:37;16.90;99.90
25250;DHT22;13201;51.148;13.738;2023-09-08T05:57:02;17.00;99.90
25250;DHT22;13201;51.148;13.738;2023-09-08T05:59:28;17.20;99.90
25250;DHT22;13201;51.148;13.738;2023-09-08T06:01:54;17.30;99.90
25250;DHT22;13201;51.148;13.738;2023-09-08T06:04:19;17.40;99.90
25250;DHT22;13201;51.148;13.738;2023-09-08T06:06:45;17.60;99.90
25250;DHT22;13201;51.148;13.738;2023-09-08T06:09:11;17.70;99.90
25250;DHT22;13201;51.148;13.738;2023-09-08T06:11:37;17.90;99.90
25250;DHT22;13201;51.148;13.738;2023-09-08T06:14:03;18.00;99.90
25250;DHT22;13201;51.148;13.738;2023-09-08T06:16:29;18.00;99.90
25250;DHT22;13201;51.148;13.738;2023-09-08T06:18:54;18.20;99.90
25250;DHT22;13201;51.148;13.738;2023-09-08T06:21:20;18.40;99.90
25250;DHT22;13201;51.148;13.738;2023-09-08T06:23:46;18.40;99.90
25250;DHT22;13201;51.148;13.738;2023-09-08T06:26:12;18.60;99.90
25250;DHT22;13201;51.148;13.738;2023-09-08T06:28:38;18.80;99.90
25250;DHT22;13201;51.148;13.738;2023-09-08T06:31:05;18.90;99.90
25250;DHT22;13201;51.148;13.738;2023-09-08T06:33:30;19.10;99.90
25250;DHT22;13201;51.148;13.738;2023-09-08T06:35:56;19.10;99.90
25250;DHT22;13201;51.148;13.738;2023-09-08T06:38:22;19.30;99.90
25250;DHT22;13201;51.148;13.738;2023-09-08T06:40:47;19.40;99.90
25250;DHT22;13201;51.148;13.738;2023-09-08T06:43:13;19.50;99.90
25250;DHT22;13201;51.148;13.738;2023-09-08T06:45:39;19.60;99.90
25250;DHT22;13201;51.148;13.738;2023-09-08T06:48:08;19.60;99.90
25250;DHT22;13201;51.148;13.738;2023-09-08T06:50:34;19.70;99.90
25250;DHT22;13201;51.148;13.738;2023-09-08T06:53:00;19.90;99.90
25250;DHT22;13201;51.148;13.738;2023-09-08T06:55:26;20.00;99.90
25250;DHT22;13201;51.148;13.738;2023-09-08T06:57:51;20.00;99.90
25250;DHT22;13201;51.148;13.738;2023-09-08T07:00:17;20.10;99.90
25250;DHT22;13201;51.148;13.738;2023-09-08T07:02:43;20.20;99.90
25250;DHT22;13201;51.148;13.738;2023-09-08T07:05:09;20.40;99.90
25250;DHT22;13201;51.148;13.738;2023-09-08T07:07:35;20.40;99.90
25250;DHT22;13201;51.148;13.738;2023-09-08T07:10:02;20.50;99.90
25250;DHT22;13201;51.148;13.738;2023-09-08T07:12:28;20.60;99.90
25250;DHT22;13201;51.148;13.738;2023-09-08T07:14:54;20.70;99.90
25250;DHT22;13201;51.148;13.738;2023-09-08T07:17:20;20.80;99.90
25250;DHT22;13201;51.148;13.738;2023-09-08T07:19:45;20.90;99.90
25250;DHT22;13201;51.148;13.738;2023-09-08T07:22:11;21.00;99.90
25250;DHT22;13201;51.148;13.738;2023-09-08T07:24:36;20.90;99.90
25250;DHT22;13201;51.148;13.738;2023-09-08T07:27:02;21.10;99.90
25250;DHT22;13201;51.148;13.738;2023-09-08T07:29:28;21.30;99.90
25250;DHT22;13201;51.148;13.738;2023-09-08T07:31:54;21.30;99.90
25250;DHT22;13201;51.148;13.738;2023-09-08T07:34:19;21.30;99.90
25250;DHT22;13201;51.148;13.738;2023-09-08T07:36:45;21.40;99.90
25250;DHT22;13201;51.148;13.738;2023-09-08T07:39:11;21.60;99.90
25250;DHT22;13201;51.148;13.738;2023-09-08T07:41:36;21.70;99.90
25250;DHT22;13201;51.148;13.738;2023-09-08T07:44:05;21.70;99.90
25250;DHT22;13201;51.148;13.738;2023-09-08T07:46:30;21.80;99.90
25250;DHT22;13201;51.148;13.738;2023-09-08T07:48:58;21.90;99.90
25250;DHT22;13201;51.148;13.738;2023-09-08T07:51:24;22.00;99.90
25250;DHT22;13201;51.148;13.738;2023-09-08T07:53:49;22.00;99.90
25250;DHT22;13201;51.148;13.738;2023-09-08T07:56:15;22.10;99.90
25250;DHT22;13201;51.148;13.738;2023-09-08T07:58:41;22.20;99.90
25250;DHT22;13201;51.148;13.738;2023-09-08T08:01:07;22.30;99.90
25250;DHT22;13201;51.148;13.738;2023-09-08T08:03:32;22.50;99.90
25250;DHT22;13201;51.148;13.738;2023-09-08T08:06:00;22.60;99.90
25250;DHT22;13201;51.148;13.738;2023-09-08T08:08:26;22.60;99.90
25250;DHT22;13201;51.148;13.738;2023-09-08T08:10:52;22.60;99.90
25250;DHT22;13201;51.148;13.738;2023-09-08T08:13:18;22.70;99.90
25250;DHT22;13201;51.148;13.738;2023-09-08T08:15:44;22.80;99.90
25250;DHT22;13201;51.148;13.738;2023-09-08T08:18:12;22.90;99.90
25250;DHT22;13201;51.148;13.738;2023-09-08T08:20:38;23.00;99.90
25250;DHT22;13201;51.148;13.738;2023-09-08T08:23:05;23.10;99.90
25250;DHT22;13201;51.148;13.738;2023-09-08T08:25:31;23.20;99.90
25250;DHT22;13201;51.148;13.738;2023-09-08T08:27:58;23.30;99.90
25250;DHT22;13201;51.148;13.738;2023-09-08T08:30:26;23.40;99.90
25250;DHT22;13201;51.148;13.738;2023-09-08T08:32:52;23.40;99.90
25250;DHT22;13201;51.148;13.738;2023-09-08T08:35:21;23.50;99.90
25250;DHT22;13201;51.148;13.738;2023-09-08T08:37:47;23.60;99.90
25250;DHT22;13201;51.148;13.738;2023-09-08T08:40:13;23.70;99.90
25250;DHT22;13201;51.148;13.738;2023-09-08T08:42:39;23.80;99.90
25250;DHT22;13201;51.148;13.738;2023-09-08T08:45:05;23.90;99.90
25250;DHT22;13201;51.148;13.738;2023-09-08T08:47:32;23.90;99.90
25250;DHT22;13201;51.148;13.738;2023-09-08T08:49:58;24.10;99.90
25250;DHT22;13201;51.148;13.738;2023-09-08T08:52:26;24.20;99.90
25250;DHT22;13201;51.148;13.738;2023-09-08T08:54:51;24.20;99.90
25250;DHT22;13201;51.148;13.738;2023-09-08T08:57:17;24.30;99.90
25250;DHT22;13201;51.148;13.738;2023-09-08T08:59:44;24.40;99.90
25250;DHT22;13201;51.148;13.738;2023-09-08T09:02:11;24.40;99.90
25250;DHT22;13201;51.148;13.738;2023-09-08T09:04:38;24.60;99.90
25250;DHT22;13201;51.148;13.738;2023-09-08T09:07:06;24.60;99.90
25250;DHT22;13201;51.148;13.738;2023-09-08T09:09:31;24.70;99.90
25250;DHT22;13201;51.148;13.738;2023-09-08T09:11:57;24.70;99.90
25250;DHT22;13201;51.148;13.738;2023-09-08T09:14:23;24.80;99.90
25250;DHT22;13201;51.148;13.738;2023-09-08T09:16:49;24.90;99.90
25250;DHT22;13201;51.148;13.738;2023-09-08T09:19:20;25.00;99.90
25250;DHT22;13201;51.148;13.738;2023-09-08T09:21:57;25.10;99.90
25250;DHT22;13201;51.148;13.738;2023-09-08T09:24:37;25.20;99.90
25250;DHT22;13201;51.148;13.738;2023-09-08T09:27:04;25.30;99.90
25250;DHT22;13201;51.148;13.738;2023-09-08T09:29:44;25.40;99.90
25250;DHT22;13201;51.148;13.738;2023-09-08T09:32:11;25.60;99.90
25250;DHT22;13201;51.148;13.738;2023-09-08T09:34:51;25.60;99.90
25250;DHT22;13201;51.148;13.738;2023-09-08T09:37:19;25.70;99.90
25250;DHT22;13201;51.148;13.738;2023-09-08T09:39:52;25.90;99.90
25250;DHT22;13201;51.148;13.738;2023-09-08T09:42:18;26.00;99.90
25250;DHT22;13201;51.148;13.738;2023-09-08T09:44:46;26.10;99.90
25250;DHT22;13201;51.148;13.738;2023-09-08T09:47:13;26.20;99.90
25250;DHT22;13201;51.148;13.738;2023-09-08T09:49:47;26.20;99.90
25250;DHT22;13201;51.148;13.738;2023-09-08T09:52:15;26.40;99.90
25250;DHT22;13201;51.148;13.738;2023-09-08T09:54:45;26.50;99.90
25250;DHT22;13201;51.148;13.738;2023-09-08T09:57:14;26.50;99.90
25250;DHT22;13201;51.148;13.738;2023-09-08T09:59:43;26.60;99.90
25250;DHT22;13201;51.148;13.738;2023-09-08T10:02:13;26.70;99.80
25250;DHT22;13201;51.148;13.738;2023-09-08T10:04:42;26.80;99.90
25250;DHT22;13201;51.148;13.738;2023-09-08T10:07:11;26.90;98.90
25250;DHT22;13201;51.148;13.738;2023-09-08T10:09:37;26.80;98.50
25250;DHT22;13201;51.148;13.738;2023-09-08T10:12:06;27.00;98.70
25250;DHT22;13201;51.148;13.738;2023-09-08T10:14:36;27.10;98.80
25250;DHT22;13201;51.148;13.738;2023-09-08T10:17:02;27.20;98.50
25250;DHT22;13201;51.148;13.738;2023-09-08T10:19:28;27.30;98.70
25250;DHT22;13201;51.148;13.738;2023-09-08T10:22:00;27.30;97.60
25250;DHT22;13201;51.148;13.738;2023-09-08T10:24:27;27.40;98.50
25250;DHT22;13201;51.148;13.738;2023-09-08T10:27:08;27.30;97.80
25250;DHT22;13201;51.148;13.738;2023-09-08T10:29:35;27.40;97.90
25250;DHT22;13201;51.148;13.738;2023-09-08T10:32:01;27.50;97.40
25250;DHT22;13201;51.148;13.738;2023-09-08T10:34:28;27.60;97.40
25250;DHT22;13201;51.148;13.738;2023-09-08T10:36:55;27.50;96.60
25250;DHT22;13201;51.148;13.738;2023-09-08T10:49:45;28.10;96.40
25250;DHT22;13201;51.148;13.738;2023-09-08T10:52:12;28.10;96.40
25250;DHT22;13201;51.148;13.738;2023-09-08T10:54:44;28.50;96.90
25250;DHT22;13201;51.148;13.738;2023-09-08T10:57:15;28.60;96.30
25250;DHT22;13201;51.148;13.738;2023-09-08T10:59:55;28.70;95.50
25250;DHT22;13201;51.148;13.738;2023-09-08T11:05:08;28.60;95.10
25250;DHT22;13201;51.148;13.738;2023-09-08T11:07:39;28.60;94.70
25250;DHT22;13201;51.148;13.738;2023-09-08T11:10:06;28.80;94.90
25250;DHT22;13201;51.148;13.738;2023-09-08T11:12:32;29.10;94.70
25250;DHT22;13201;51.148;13.738;2023-09-08T11:14:59;28.90;93.10
25250;DHT22;13201;51.148;13.738;2023-09-08T11:17:30;29.10;94.20
25250;DHT22;13201;51.148;13.738;2023-09-08T11:19:56;29.30;93.40
25250;DHT22;13201;51.148;13.738;2023-09-08T11:22:23;29.60;93.80
25250;DHT22;13201;51.148;13.738;2023-09-08T11:24:55;29.70;93.10
25250;DHT22;13201;51.148;13.738;2023-09-08T11:27:23;29.60;92.10
25250;DHT22;13201;51.148;13.738;2023-09-08T11:29:49;29.60;92.50
25250;DHT22;13201;51.148;13.738;2023-09-08T11:32:15;29.60;93.00
25250;DHT22;13201;51.148;13.738;2023-09-08T11:34:41;29.80;92.50
25250;DHT22;13201;51.148;13.738;2023-09-08T11:37:11;30.10;92.20
25250;DHT22;13201;51.148;13.738;2023-09-08T11:39:42;30.30;91.80
25250;DHT22;13201;51.148;13.738;2023-09-08T11:42:10;30.30;91.30
25250;DHT22;13201;51.148;13.738;2023-09-08T11:44:37;30.20;90.60
25250;DHT22;13201;51.148;13.738;2023-09-08T11:47:03;30.30;89.50
25250;DHT22;13201;51.148;13.738;2023-09-08T11:49:42;30.50;89.10
25250;DHT22;13201;51.148;13.738;2023-09-08T11:52:10;30.60;89.40
25250;DHT22;13201;51.148;13.738;2023-09-08T11:54:36;30.80;87.60
25250;DHT22;13201;51.148;13.738;2023-09-08T11:57:04;31.00;88.00
25250;DHT22;13201;51.148;13.738;2023-09-08T11:59:34;31.00;88.30
25250;DHT22;13201;51.148;13.738;2023-09-08T12:02:00;31.10;89.00
25250;DHT22;13201;51.148;13.738;2023-09-08T12:04:27;31.50;89.70
25250;DHT22;13201;51.148;13.738;2023-09-08T12:06:54;31.30;88.40
25250;DHT22;13201;51.148;13.738;2023-09-08T12:09:21;31.10;85.90
25250;DHT22;13201;51.148;13.738;2023-09-08T12:11:47;30.90;84.90
25250;DHT22;13201;51.148;13.738;2023-09-08T12:14:14;31.40;87.30
25250;DHT22;13201;51.148;13.738;2023-09-08T12:16:43;31.70;86.40
25250;DHT22;13201;51.148;13.738;2023-09-08T12:19:31;31.90;86.40
25250;DHT22;13201;51.148;13.738;2023-09-08T12:22:01;31.70;84.70
25250;DHT22;13201;51.148;13.738;2023-09-08T12:24:55;31.60;86.90
25250;DHT22;13201;51.148;13.738;2023-09-08T12:27:22;31.50;85.50
25250;DHT22;13201;51.148;13.738;2023-09-08T12:29:52;31.50;84.60
25250;DHT22;13201;51.148;13.738;2023-09-08T12:32:18;31.70;85.00
25250;DHT22;13201;51.148;13.738;2023-09-08T12:34:44;31.90;83.00
25250;DHT22;13201;51.148;13.738;2023-09-08T12:37:10;31.90;84.30
25250;DHT22;13201;51.148;13.738;2023-09-08T12:39:38;32.30;83.80
25250;DHT22;13201;51.148;13.738;2023-09-08T12:42:04;32.60;83.90
25250;DHT22;13201;51.148;13.738;2023-09-08T12:44:30;32.40;83.30
25250;DHT22;13201;51.148;13.738;2023-09-08T12:46:56;32.10;82.10
25250;DHT22;13201;51.148;13.738;2023-09-08T12:49:22;32.40;79.70
25250;DHT22;13201;51.148;13.738;2023-09-08T12:51:47;32.60;78.00
25250;DHT22;13201;51.148;13.738;2023-09-08T12:54:13;33.00;78.60
25250;DHT22;13201;51.148;13.738;2023-09-08T12:56:38;32.40;76.50
25250;DHT22;13201;51.148;13.738;2023-09-08T12:59:04;32.60;79.30
25250;DHT22;13201;51.148;13.738;2023-09-08T13:01:30;32.90;76.20
25250;DHT22;13201;51.148;13.738;2023-09-08T13:03:55;33.10;78.40
25250;DHT22;13201;51.148;13.738;2023-09-08T13:06:21;33.00;73.70
25250;DHT22;13201;51.148;13.738;2023-09-08T13:08:47;33.10;75.80
25250;DHT22;13201;51.148;13.738;2023-09-08T13:11:12;33.00;74.70
25250;DHT22;13201;51.148;13.738;2023-09-08T13:13:38;33.40;76.40
25250;DHT22;13201;51.148;13.738;2023-09-08T13:16:04;33.40;75.10
25250;DHT22;13201;51.148;13.738;2023-09-08T13:18:29;33.40;73.70
25250;DHT22;13201;51.148;13.738;2023-09-08T13:21:01;33.70;76.10
25250;DHT22;13201;51.148;13.738;2023-09-08T13:23:27;33.60;72.50
25250;DHT22;13201;51.148;13.738;2023-09-08T13:25:52;33.50;72.40
25250;DHT22;13201;51.148;13.738;2023-09-08T13:28:18;33.00;70.40
25250;DHT22;13201;51.148;13.738;2023-09-08T13:30:44;33.40;75.40
25250;DHT22;13201;51.148;13.738;2023-09-08T13:33:09;33.70;73.20
25250;DHT22;13201;51.148;13.738;2023-09-08T13:35:35;34.00;73.60
25250;DHT22;13201;51.148;13.738;2023-09-08T13:38:01;34.00;73.40
25250;DHT22;13201;51.148;13.738;2023-09-08T13:40:28;34.50;73.50
25250;DHT22;13201;51.148;13.738;2023-09-08T13:42:54;34.60;70.40
25250;DHT22;13201;51.148;13.738;2023-09-08T13:45:19;34.60;73.00
25250;DHT22;13201;51.148;13.738;2023-09-08T13:47:45;34.90;72.40
25250;DHT22;13201;51.148;13.738;2023-09-08T13:50:11;35.00;71.80
25250;DHT22;13201;51.148;13.738;2023-09-08T13:52:37;34.60;70.80
25250;DHT22;13201;51.148;13.738;2023-09-08T13:55:05;34.20;71.50
25250;DHT22;13201;51.148;13.738;2023-09-08T13:57:31;34.70;72.70
25250;DHT22;13201;51.148;13.738;2023-09-08T13:59:57;35.10;70.70
25250;DHT22;13201;51.148;13.738;2023-09-08T14:02:23;34.90;71.60
25250;DHT22;13201;51.148;13.738;2023-09-08T14:04:48;34.30;71.00
25250;DHT22;13201;51.148;13.738;2023-09-08T14:07:14;34.60;72.40
25250;DHT22;13201;51.148;13.738;2023-09-08T14:09:40;35.10;71.70
25250;DHT22;13201;51.148;13.738;2023-09-08T14:12:06;35.30;72.00
25250;DHT22;13201;51.148;13.738;2023-09-08T14:14:31;34.60;71.10
25250;DHT22;13201;51.148;13.738;2023-09-08T14:16:57;35.00;72.20
25250;DHT22;13201;51.148;13.738;2023-09-08T14:19:23;34.70;71.00
25250;DHT22;13201;51.148;13.738;2023-09-08T14:21:48;34.90;68.90
25250;DHT22;13201;51.148;13.738;2023-09-08T14:24:14;35.20;69.10
25250;DHT22;13201;51.148;13.738;2023-09-08T14:26:40;35.70;68.60
25250;DHT22;13201;51.148;13.738;2023-09-08T14:29:05;35.40;68.40
25250;DHT22;13201;51.148;13.738;2023-09-08T14:31:31;35.80;69.10
25250;DHT22;13201;51.148;13.738;2023-09-08T14:33:57;36.00;67.90
25250;DHT22;13201;51.148;13.738;2023-09-08T14:36:23;36.50;67.20
25250;DHT22;13201;51.148;13.738;2023-09-08T14:38:49;36.20;67.80
25250;DHT22;13201;51.148;13.738;2023-09-08T14:41:15;35.30;68.00
25250;DHT22;13201;51.148;13.738;2023-09-08T14:43:41;35.90;66.60
25250;DHT22;13201;51.148;13.738;2023-09-08T14:46:07;35.90;66.70
25250;DHT22;13201;51.148;13.738;2023-09-08T14:48:33;35.90;65.40
25250;DHT22;13201;51.148;13.738;2023-09-08T14:50:59;36.30;66.60
25250;DHT22;13201;51.148;13.738;2023-09-08T14:53:25;36.40;66.40
25250;DHT22;13201;51.148;13.738;2023-09-08T14:55:50;36.50;66.80
25250;DHT22;13201;51.148;13.738;2023-09-08T14:58:16;37.10;66.30
25250;DHT22;13201;51.148;13.738;2023-09-08T15:00:42;36.70;64.40
25250;DHT22;13201;51.148;13.738;2023-09-08T15:03:09;36.70;66.10
25250;DHT22;13201;51.148;13.738;2023-09-08T15:05:35;36.40;65.10
25250;DHT22;13201;51.148;13.738;2023-09-08T15:08:01;36.00;65.10
25250;DHT22;13201;51.148;13.738;2023-09-08T15:10:27;35.40;63.80
25250;DHT22;13201;51.148;13.738;2023-09-08T15:12:53;36.00;65.80
25250;DHT22;13201;51.148;13.738;2023-09-08T15:15:19;36.30;65.60
25250;DHT22;13201;51.148;13.738;2023-09-08T15:17:55;36.40;64.90
25250;DHT22;13201;51.148;13.738;2023-09-08T15:20:21;36.60;64.10
25250;DHT22;13201;51.148;13.738;2023-09-08T15:22:47;36.70;64.10
25250;DHT22;13201;51.148;13.738;2023-09-08T15:25:13;37.00;64.40
25250;DHT22;13201;51.148;13.738;2023-09-08T15:27:40;36.30;63.60
25250;DHT22;13201;51.148;13.738;2023-09-08T15:30:06;36.10;63.60
25250;DHT22;13201;51.148;13.738;2023-09-08T15:32:32;35.80;63.80
25250;DHT22;13201;51.148;13.738;2023-09-08T15:34:57;36.40;64.50
25250;DHT22;13201;51.148;13.738;2023-09-08T15:37:23;36.00;63.70
25250;DHT22;13201;51.148;13.738;2023-09-08T15:39:49;35.70;65.00
25250;DHT22;13201;51.148;13.738;2023-09-08T15:42:14;35.90;65.30
25250;DHT22;13201;51.148;13.738;2023-09-08T15:44:40;35.70;64.90
25250;DHT22;13201;51.148;13.738;2023-09-08T15:47:06;36.00;64.90
25250;DHT22;13201;51.148;13.738;2023-09-08T15:49:31;35.80;64.10